sensor_id;sensor_type;location;lat;lon;timestamp;P1;durP1;ratioP1;P2;durP2;ratioP2
13571;SDS011;6857;53.484;10.216;2024-02-15T00:00:48;32.90;;;16.93;;
13571;SDS011;6857;53.484;10.216;2024-02-15T00:03:16;34.97;;;16.83;;
13571;SDS011;6857;53.484;10.216;2024-02-15T00:05:43;33.93;;;16.93;;
13571;SDS011;6857;53.484;10.216;2024-02-15T00:08:09;32.83;;;17.30;;
13571;SDS011;6857;53.484;10.216;2024-02-15T00:10:34;33.60;;;15.50;;
13571;SDS011;6857;53.484;10.216;2024-02-15T00:13:00;36.07;;;16.50;;
13571;SDS011;6857;53.484;10.216;2024-02-15T00:15:25;34.43;;;16.07;;
13571;SDS011;6857;53.484;10.216;2024-02-15T00:17:51;31.27;;;16.17;;
13571;SDS011;6857;53.484;10.216;2024-02-15T00:20:16;33.47;;;15.90;;
13571;SDS011;6857;53.484;10.216;2024-02-15T00:22:42;35.93;;;17.07;;
13571;SDS011;6857;53.484;10.216;2024-02-15T00:25:08;36.80;;;16.73;;
13571;SDS011;6857;53.484;10.216;2024-02-15T00:27:36;32.87;;;16.50;;
13571;SDS011;6857;53.484;10.216;2024-02-15T00:30:03;32.93;;;16.63;;
13571;SDS011;6857;53.484;10.216;2024-02-15T00:32:32;32.00;;;15.90;;
13571;SDS011;6857;53.484;10.216;2024-02-15T00:34:58;31.77;;;16.60;;
13571;SDS011;6857;53.484;10.216;2024-02-15T00:37:23;32.07;;;15.83;;
13571;SDS011;6857;53.484;10.216;2024-02-15T00:39:49;31.20;;;15.53;;
13571;SDS011;6857;53.484;10.216;2024-02-15T00:42:14;28.27;;;16.10;;
13571;SDS011;6857;53.484;10.216;2024-02-15T00:44:40;32.17;;;16.33;;
13571;SDS011;6857;53.484;10.216;2024-02-15T00:47:06;31.10;;;16.20;;
13571;SDS011;6857;53.484;10.216;2024-02-15T00:49:34;29.47;;;15.33;;
13571;SDS011;6857;53.484;10.216;2024-02-15T00:52:00;29.80;;;15.43;;
13571;SDS011;6857;53.484;10.216;2024-02-15T00:54:26;32.73;;;16.27;;
13571;SDS011;6857;53.484;10.216;2024-02-15T00:56:52;28.40;;;15.40;;
13571;SDS011;6857;53.484;10.216;2024-02-15T00:59:17;28.47;;;15.87;;
13571;SDS011;6857;53.484;10.216;2024-02-15T01:01:43;28.73;;;15.70;;
13571;SDS011;6857;53.484;10.216;2024-02-15T01:04:09;30.27;;;15.47;;
13571;SDS011;6857;53.484;10.216;2024-02-15T01:06:35;31.40;;;16.93;;
13571;SDS011;6857;53.484;10.216;2024-02-15T01:09:01;29.17;;;15.63;;
13571;SDS011;6857;53.484;10.216;2024-02-15T01:11:28;30.77;;;16.13;;
13571;SDS011;6857;53.484;10.216;2024-02-15T01:14:00;29.97;;;15.30;;
13571;SDS011;6857;53.484;10.216;2024-02-15T01:16:26;29.70;;;15.73;;
13571;SDS011;6857;53.484;10.216;2024-02-15T01:18:51;36.57;;;16.57;;
13571;SDS011;6857;53.484;10.216;2024-02-15T01:21:17;28.43;;;14.87;;
13571;SDS011;6857;53.484;10.216;2024-02-15T01:23:44;32.23;;;16.07;;
13571;SDS011;6857;53.484;10.216;2024-02-15T01:26:11;31.43;;;15.60;;
13571;SDS011;6857;53.484;10.216;2024-02-15T01:28:38;28.77;;;14.23;;
13571;SDS011;6857;53.484;10.216;2024-02-15T01:31:05;33.20;;;15.50;;
13571;SDS011;6857;53.484;10.216;2024-02-15T01:33:31;29.80;;;14.93;;
13571;SDS011;6857;53.484;10.216;2024-02-15T01:35:57;30.67;;;15.53;;
13571;SDS011;6857;53.484;10.216;2024-02-15T01:38:22;34.27;;;15.67;;
13571;SDS011;6857;53.484;10.216;2024-02-15T01:40:48;30.43;;;15.57;;
13571;SDS011;6857;53.484;10.216;2024-02-15T01:43:14;32.07;;;16.50;;
13571;SDS011;6857;53.484;10.216;2024-02-15T01:45:39;33.97;;;16.47;;
13571;SDS011;6857;53.484;10.216;2024-02-15T01:48:05;29.73;;;14.57;;
13571;SDS011;6857;53.484;10.216;2024-02-15T01:50:32;30.27;;;15.27;;
13571;SDS011;6857;53.484;10.216;2024-02-15T01:52:59;29.33;;;15.80;;
13571;SDS011;6857;53.484;10.216;2024-02-15T01:55:25;29.13;;;15.17;;
13571;SDS011;6857;53.484;10.216;2024-02-15T01:57:51;32.83;;;16.33;;
13571;SDS011;6857;53.484;10.216;2024-02-15T02:00:17;29.07;;;14.53;;
13571;SDS011;6857;53.484;10.216;2024-02-15T02:02:44;30.43;;;15.53;;
13571;SDS011;6857;53.484;10.216;2024-02-15T02:05:10;30.87;;;16.00;;
13571;SDS011;6857;53.484;10.216;2024-02-15T02:07:36;27.20;;;15.13;;
13571;SDS011;6857;53.484;10.216;2024-02-15T02:10:02;33.50;;;15.77;;
13571;SDS011;6857;53.484;10.216;2024-02-15T02:12:28;32.80;;;17.03;;
13571;SDS011;6857;53.484;10.216;2024-02-15T02:14:54;31.53;;;16.03;;
13571;SDS011;6857;53.484;10.216;2024-02-15T02:17:20;31.97;;;15.63;;
13571;SDS011;6857;53.484;10.216;2024-02-15T02:19:46;32.43;;;15.80;;
13571;SDS011;6857;53.484;10.216;2024-02-15T02:22:14;32.10;;;16.23;;
13571;SDS011;6857;53.484;10.216;2024-02-15T02:25:02;32.70;;;16.43;;
13571;SDS011;6857;53.484;10.216;2024-02-15T02:27:29;33.40;;;16.83;;
13571;SDS011;6857;53.484;10.216;2024-02-15T02:29:57;35.77;;;18.13;;
13571;SDS011;6857;53.484;10.216;2024-02-15T02:32:24;34.97;;;17.80;;
13571;SDS011;6857;53.484;10.216;2024-02-15T02:34:50;34.90;;;17.43;;
13571;SDS011;6857;53.484;10.216;2024-02-15T02:37:16;32.90;;;16.47;;
13571;SDS011;6857;53.484;10.216;2024-02-15T02:39:42;33.43;;;17.13;;
13571;SDS011;6857;53.484;10.216;2024-02-15T02:42:08;32.47;;;16.43;;
13571;SDS011;6857;53.484;10.216;2024-02-15T02:44:33;34.03;;;17.20;;
13571;SDS011;6857;53.484;10.216;2024-02-15T02:46:59;32.00;;;15.67;;
13571;SDS011;6857;53.484;10.216;2024-02-15T02:49:25;33.70;;;16.83;;
13571;SDS011;6857;53.484;10.216;2024-02-15T02:51:50;33.77;;;17.37;;
13571;SDS011;6857;53.484;10.216;2024-02-15T02:54:16;34.17;;;16.73;;
13571;SDS011;6857;53.484;10.216;2024-02-15T02:56:42;32.43;;;16.00;;
13571;SDS011;6857;53.484;10.216;2024-02-15T02:59:10;34.73;;;16.33;;
13571;SDS011;6857;53.484;10.216;2024-02-15T03:01:35;33.00;;;16.93;;
13571;SDS011;6857;53.484;10.216;2024-02-15T03:04:01;31.70;;;15.57;;
13571;SDS011;6857;53.484;10.216;2024-02-15T03:06:26;33.13;;;15.73;;
13571;SDS011;6857;53.484;10.216;2024-02-15T03:08:52;31.83;;;16.97;;
13571;SDS011;6857;53.484;10.216;2024-02-15T03:11:19;29.90;;;16.43;;
13571;SDS011;6857;53.484;10.216;2024-02-15T03:13:45;31.53;;;16.73;;
13571;SDS011;6857;53.484;10.216;2024-02-15T03:16:10;32.10;;;16.50;;
13571;SDS011;6857;53.484;10.216;2024-02-15T03:18:36;27.63;;;16.10;;
13571;SDS011;6857;53.484;10.216;2024-02-15T03:21:02;29.80;;;15.17;;
13571;SDS011;6857;53.484;10.216;2024-02-15T03:23:29;25.53;;;13.97;;
13571;SDS011;6857;53.484;10.216;2024-02-15T03:25:55;28.73;;;15.87;;
13571;SDS011;6857;53.484;10.216;2024-02-15T03:28:21;28.53;;;14.87;;
13571;SDS011;6857;53.484;10.216;2024-02-15T03:30:48;27.23;;;14.93;;
13571;SDS011;6857;53.484;10.216;2024-02-15T03:33:14;26.83;;;15.20;;
13571;SDS011;6857;53.484;10.216;2024-02-15T03:35:39;26.67;;;13.73;;
13571;SDS011;6857;53.484;10.216;2024-02-15T03:38:05;25.80;;;13.63;;
13571;SDS011;6857;53.484;10.216;2024-02-15T03:40:31;25.23;;;13.23;;
13571;SDS011;6857;53.484;10.216;2024-02-15T03:42:57;23.27;;;12.07;;
13571;SDS011;6857;53.484;10.216;2024-02-15T03:45:23;23.17;;;13.73;;
13571;SDS011;6857;53.484;10.216;2024-02-15T03:47:49;26.50;;;13.63;;
13571;SDS011;6857;53.484;10.216;2024-02-15T03:50:18;23.03;;;11.97;;
13571;SDS011;6857;53.484;10.216;2024-02-15T03:52:45;21.60;;;12.13;;
13571;SDS011;6857;53.484;10.216;2024-02-15T03:55:11;24.67;;;12.37;;
13571;SDS011;6857;53.484;10.216;2024-02-15T03:57:40;23.20;;;12.30;;
13571;SDS011;6857;53.484;10.216;2024-02-15T04:00:06;23.93;;;12.00;;
13571;SDS011;6857;53.484;10.216;2024-02-15T04:02:33;23.00;;;12.07;;
13571;SDS011;6857;53.484;10.216;2024-02-15T04:05:00;26.20;;;12.67;;
13571;SDS011;6857;53.484;10.216;2024-02-15T04:07:26;27.17;;;13.47;;
13571;SDS011;6857;53.484;10.216;2024-02-15T04:09:55;27.10;;;14.27;;
13571;SDS011;6857;53.484;10.216;2024-02-15T04:12:20;31.43;;;14.40;;
13571;SDS011;6857;53.484;10.216;2024-02-15T04:14:46;27.63;;;13.67;;
13571;SDS011;6857;53.484;10.216;2024-02-15T04:17:12;33.20;;;15.03;;
13571;SDS011;6857;53.484;10.216;2024-02-15T04:19:40;27.80;;;14.43;;
13571;SDS011;6857;53.484;10.216;2024-02-15T04:22:06;28.23;;;14.17;;
13571;SDS011;6857;53.484;10.216;2024-02-15T04:24:35;30.60;;;14.80;;
13571;SDS011;6857;53.484;10.216;2024-02-15T04:27:04;35.87;;;16.00;;
13571;SDS011;6857;53.484;10.216;2024-02-15T04:29:33;31.63;;;14.93;;
13571;SDS011;6857;53.484;10.216;2024-02-15T04:31:59;31.10;;;15.53;;
13571;SDS011;6857;53.484;10.216;2024-02-15T04:34:25;31.47;;;15.27;;
13571;SDS011;6857;53.484;10.216;2024-02-15T04:36:51;26.97;;;14.30;;
13571;SDS011;6857;53.484;10.216;2024-02-15T04:39:20;28.23;;;15.57;;
13571;SDS011;6857;53.484;10.216;2024-02-15T04:41:52;35.50;;;15.27;;
13571;SDS011;6857;53.484;10.216;2024-02-15T04:44:18;34.80;;;15.60;;
13571;SDS011;6857;53.484;10.216;2024-02-15T04:46:51;33.13;;;15.37;;
13571;SDS011;6857;53.484;10.216;2024-02-15T04:49:17;35.03;;;16.90;;
13571;SDS011;6857;53.484;10.216;2024-02-15T04:51:43;34.57;;;16.83;;
13571;SDS011;6857;53.484;10.216;2024-02-15T04:54:09;36.00;;;16.50;;
13571;SDS011;6857;53.484;10.216;2024-02-15T04:56:41;41.33;;;17.67;;
13571;SDS011;6857;53.484;10.216;2024-02-15T04:59:07;37.33;;;17.87;;
13571;SDS011;6857;53.484;10.216;2024-02-15T05:01:36;34.53;;;16.40;;
13571;SDS011;6857;53.484;10.216;2024-02-15T05:04:02;33.17;;;16.50;;
13571;SDS011;6857;53.484;10.216;2024-02-15T05:06:31;33.70;;;16.53;;
13571;SDS011;6857;53.484;10.216;2024-02-15T05:08:57;36.17;;;16.93;;
13571;SDS011;6857;53.484;10.216;2024-02-15T05:11:25;38.47;;;16.97;;
13571;SDS011;6857;53.484;10.216;2024-02-15T05:13:50;34.60;;;16.60;;
13571;SDS011;6857;53.484;10.216;2024-02-15T05:16:16;37.70;;;17.50;;
13571;SDS011;6857;53.484;10.216;2024-02-15T05:18:43;35.80;;;17.77;;
13571;SDS011;6857;53.484;10.216;2024-02-15T05:21:08;37.03;;;16.57;;
13571;SDS011;6857;53.484;10.216;2024-02-15T05:23:37;40.13;;;17.93;;
13571;SDS011;6857;53.484;10.216;2024-02-15T05:26:05;35.20;;;17.63;;
13571;SDS011;6857;53.484;10.216;2024-02-15T05:28:30;40.50;;;18.00;;
13571;SDS011;6857;53.484;10.216;2024-02-15T05:33:42;37.27;;;17.87;;
13571;SDS011;6857;53.484;10.216;2024-02-15T05:36:14;37.43;;;18.33;;
13571;SDS011;6857;53.484;10.216;2024-02-15T05:38:41;38.73;;;18.73;;
13571;SDS011;6857;53.484;10.216;2024-02-15T05:41:06;37.87;;;18.53;;
13571;SDS011;6857;53.484;10.216;2024-02-15T05:43:35;41.23;;;17.97;;
13571;SDS011;6857;53.484;10.216;2024-02-15T05:46:04;41.80;;;18.90;;
13571;SDS011;6857;53.484;10.216;2024-02-15T05:48:31;37.13;;;17.43;;
13571;SDS011;6857;53.484;10.216;2024-02-15T05:51:00;38.17;;;18.93;;
13571;SDS011;6857;53.484;10.216;2024-02-15T05:53:29;41.53;;;19.60;;
13571;SDS011;6857;53.484;10.216;2024-02-15T05:55:55;46.83;;;20.10;;
13571;SDS011;6857;53.484;10.216;2024-02-15T05:58:23;43.10;;;19.23;;
13571;SDS011;6857;53.484;10.216;2024-02-15T06:00:49;45.13;;;19.33;;
13571;SDS011;6857;53.484;10.216;2024-02-15T06:03:17;41.83;;;18.93;;
13571;SDS011;6857;53.484;10.216;2024-02-15T06:05:43;46.87;;;18.87;;
13571;SDS011;6857;53.484;10.216;2024-02-15T06:08:09;46.47;;;19.37;;
13571;SDS011;6857;53.484;10.216;2024-02-15T06:10:38;43.27;;;18.67;;
13571;SDS011;6857;53.484;10.216;2024-02-15T06:13:05;50.20;;;19.20;;
13571;SDS011;6857;53.484;10.216;2024-02-15T06:15:30;39.60;;;18.47;;
13571;SDS011;6857;53.484;10.216;2024-02-15T06:17:56;40.30;;;18.37;;
13571;SDS011;6857;53.484;10.216;2024-02-15T06:20:22;43.03;;;19.17;;
13571;SDS011;6857;53.484;10.216;2024-02-15T06:22:48;37.87;;;17.17;;
13571;SDS011;6857;53.484;10.216;2024-02-15T06:25:14;39.57;;;17.27;;
13571;SDS011;6857;53.484;10.216;2024-02-15T06:27:45;46.80;;;18.80;;
13571;SDS011;6857;53.484;10.216;2024-02-15T06:30:11;47.37;;;19.03;;
13571;SDS011;6857;53.484;10.216;2024-02-15T06:32:56;44.53;;;18.17;;
13571;SDS011;6857;53.484;10.216;2024-02-15T06:35:41;43.90;;;19.30;;
13571;SDS011;6857;53.484;10.216;2024-02-15T06:38:25;37.90;;;18.20;;
13571;SDS011;6857;53.484;10.216;2024-02-15T06:41:09;41.20;;;17.43;;
13571;SDS011;6857;53.484;10.216;2024-02-15T06:43:35;40.50;;;18.33;;
13571;SDS011;6857;53.484;10.216;2024-02-15T06:46:01;43.83;;;17.47;;
13571;SDS011;6857;53.484;10.216;2024-02-15T06:48:27;41.70;;;18.57;;
13571;SDS011;6857;53.484;10.216;2024-02-15T06:50:53;42.53;;;17.03;;
13571;SDS011;6857;53.484;10.216;2024-02-15T06:53:19;39.87;;;16.80;;
13571;SDS011;6857;53.484;10.216;2024-02-15T06:55:45;43.40;;;18.47;;
13571;SDS011;6857;53.484;10.216;2024-02-15T06:58:14;46.50;;;19.37;;
13571;SDS011;6857;53.484;10.216;2024-02-15T07:00:41;45.43;;;19.23;;
13571;SDS011;6857;53.484;10.216;2024-02-15T07:03:07;45.80;;;18.87;;
13571;SDS011;6857;53.484;10.216;2024-02-15T07:05:33;48.47;;;19.53;;
13571;SDS011;6857;53.484;10.216;2024-02-15T07:07:59;46.97;;;19.33;;
13571;SDS011;6857;53.484;10.216;2024-02-15T07:10:25;43.80;;;19.10;;
13571;SDS011;6857;53.484;10.216;2024-02-15T07:12:51;45.40;;;18.43;;
13571;SDS011;6857;53.484;10.216;2024-02-15T07:15:17;45.97;;;19.63;;
13571;SDS011;6857;53.484;10.216;2024-02-15T07:17:42;46.83;;;19.63;;
13571;SDS011;6857;53.484;10.216;2024-02-15T07:20:10;44.10;;;19.20;;
13571;SDS011;6857;53.484;10.216;2024-02-15T07:22:36;38.30;;;17.70;;
13571;SDS011;6857;53.484;10.216;2024-02-15T07:25:04;38.53;;;17.97;;
13571;SDS011;6857;53.484;10.216;2024-02-15T07:27:30;40.57;;;18.07;;
13571;SDS011;6857;53.484;10.216;2024-02-15T07:29:57;40.60;;;17.80;;
13571;SDS011;6857;53.484;10.216;2024-02-15T07:32:23;40.10;;;18.27;;
13571;SDS011;6857;53.484;10.216;2024-02-15T07:34:48;40.53;;;17.27;;
13571;SDS011;6857;53.484;10.216;2024-02-15T07:37:14;45.13;;;19.07;;
13571;SDS011;6857;53.484;10.216;2024-02-15T07:39:41;43.90;;;19.73;;
13571;SDS011;6857;53.484;10.216;2024-02-15T07:42:06;37.07;;;18.17;;
13571;SDS011;6857;53.484;10.216;2024-02-15T07:44:33;41.53;;;18.90;;
13571;SDS011;6857;53.484;10.216;2024-02-15T07:47:01;38.23;;;18.27;;
13571;SDS011;6857;53.484;10.216;2024-02-15T07:49:27;40.80;;;18.30;;
13571;SDS011;6857;53.484;10.216;2024-02-15T07:51:53;43.33;;;19.93;;
13571;SDS011;6857;53.484;10.216;2024-02-15T07:54:19;41.27;;;18.60;;
13571;SDS011;6857;53.484;10.216;2024-02-15T07:56:48;38.53;;;17.93;;
13571;SDS011;6857;53.484;10.216;2024-02-15T07:59:15;36.27;;;18.53;;
13571;SDS011;6857;53.484;10.216;2024-02-15T08:01:46;37.50;;;17.13;;
13571;SDS011;6857;53.484;10.216;2024-02-15T08:04:15;40.83;;;18.60;;
13571;SDS011;6857;53.484;10.216;2024-02-15T08:06:40;36.23;;;17.57;;
13571;SDS011;6857;53.484;10.216;2024-02-15T08:09:07;37.10;;;16.83;;
13571;SDS011;6857;53.484;10.216;2024-02-15T08:11:38;36.47;;;16.73;;
13571;SDS011;6857;53.484;10.216;2024-02-15T08:14:06;38.87;;;16.23;;
13571;SDS011;6857;53.484;10.216;2024-02-15T08:16:35;31.83;;;15.17;;
13571;SDS011;6857;53.484;10.216;2024-02-15T08:19:02;35.80;;;15.70;;
13571;SDS011;6857;53.484;10.216;2024-02-15T08:21:30;36.23;;;15.23;;
13571;SDS011;6857;53.484;10.216;2024-02-15T08:24:04;33.10;;;15.67;;
13571;SDS011;6857;53.484;10.216;2024-02-15T08:26:35;32.17;;;15.77;;
13571;SDS011;6857;53.484;10.216;2024-02-15T08:29:02;32.53;;;15.50;;
13571;SDS011;6857;53.484;10.216;2024-02-15T08:31:28;32.80;;;14.90;;
13571;SDS011;6857;53.484;10.216;2024-02-15T08:33:56;31.43;;;14.67;;
13571;SDS011;6857;53.484;10.216;2024-02-15T08:36:22;31.37;;;14.40;;
13571;SDS011;6857;53.484;10.216;2024-02-15T08:38:49;28.60;;;14.10;;
13571;SDS011;6857;53.484;10.216;2024-02-15T08:41:15;31.50;;;14.67;;
13571;SDS011;6857;53.484;10.216;2024-02-15T08:43:42;30.10;;;14.43;;
13571;SDS011;6857;53.484;10.216;2024-02-15T08:46:08;26.40;;;13.57;;
13571;SDS011;6857;53.484;10.216;2024-02-15T08:48:35;28.20;;;13.93;;
13571;SDS011;6857;53.484;10.216;2024-02-15T08:51:01;24.30;;;12.30;;
13571;SDS011;6857;53.484;10.216;2024-02-15T08:53:27;26.27;;;13.53;;
13571;SDS011;6857;53.484;10.216;2024-02-15T08:55:52;22.23;;;11.77;;
13571;SDS011;6857;53.484;10.216;2024-02-15T08:58:18;20.27;;;11.10;;
13571;SDS011;6857;53.484;10.216;2024-02-15T09:00:46;20.17;;;11.60;;
13571;SDS011;6857;53.484;10.216;2024-02-15T09:03:12;20.43;;;11.57;;
13571;SDS011;6857;53.484;10.216;2024-02-15T09:05:38;18.50;;;10.43;;
13571;SDS011;6857;53.484;10.216;2024-02-15T09:08:05;18.60;;;9.97;;
13571;SDS011;6857;53.484;10.216;2024-02-15T09:10:31;20.50;;;10.70;;
13571;SDS011;6857;53.484;10.216;2024-02-15T09:12:57;17.00;;;9.97;;
13571;SDS011;6857;53.484;10.216;2024-02-15T09:15:22;16.13;;;9.07;;
13571;SDS011;6857;53.484;10.216;2024-02-15T09:17:48;15.67;;;9.43;;
13571;SDS011;6857;53.484;10.216;2024-02-15T09:20:15;15.83;;;8.17;;
13571;SDS011;6857;53.484;10.216;2024-02-15T09:22:44;16.07;;;9.33;;
13571;SDS011;6857;53.484;10.216;2024-02-15T09:25:11;15.93;;;8.80;;
13571;SDS011;6857;53.484;10.216;2024-02-15T09:27:38;16.07;;;9.37;;
13571;SDS011;6857;53.484;10.216;2024-02-15T09:30:04;15.50;;;9.10;;
13571;SDS011;6857;53.484;10.216;2024-02-15T09:32:34;15.30;;;9.07;;
13571;SDS011;6857;53.484;10.216;2024-02-15T09:35:00;15.40;;;10.17;;
13571;SDS011;6857;53.484;10.216;2024-02-15T09:37:25;15.30;;;9.63;;
13571;SDS011;6857;53.484;10.216;2024-02-15T09:39:53;15.93;;;8.70;;
13571;SDS011;6857;53.484;10.216;2024-02-15T09:42:20;14.90;;;8.70;;
13571;SDS011;6857;53.484;10.216;2024-02-15T09:44:45;13.17;;;9.20;;
13571;SDS011;6857;53.484;10.216;2024-02-15T09:47:12;15.13;;;9.70;;
13571;SDS011;6857;53.484;10.216;2024-02-15T09:49:40;15.17;;;9.30;;
13571;SDS011;6857;53.484;10.216;2024-02-15T09:52:06;13.73;;;8.83;;
13571;SDS011;6857;53.484;10.216;2024-02-15T09:54:38;16.23;;;10.40;;
13571;SDS011;6857;53.484;10.216;2024-02-15T09:57:08;16.90;;;11.40;;
13571;SDS011;6857;53.484;10.216;2024-02-15T09:59:34;17.03;;;11.13;;
13571;SDS011;6857;53.484;10.216;2024-02-15T10:02:01;17.43;;;11.77;;
13571;SDS011;6857;53.484;10.216;2024-02-15T10:04:27;18.33;;;11.40;;
13571;SDS011;6857;53.484;10.216;2024-02-15T10:06:53;18.30;;;12.13;;
13571;SDS011;6857;53.484;10.216;2024-02-15T10:09:28;18.80;;;11.87;;
13571;SDS011;6857;53.484;10.216;2024-02-15T10:11:57;22.30;;;13.83;;
13571;SDS011;6857;53.484;10.216;2024-02-15T10:14:24;21.80;;;13.70;;
13571;SDS011;6857;53.484;10.216;2024-02-15T10:16:51;21.07;;;13.13;;
13571;SDS011;6857;53.484;10.216;2024-02-15T10:19:17;20.40;;;13.70;;
13571;SDS011;6857;53.484;10.216;2024-02-15T10:21:45;22.03;;;14.30;;
13571;SDS011;6857;53.484;10.216;2024-02-15T10:24:11;20.57;;;14.20;;
13571;SDS011;6857;53.484;10.216;2024-02-15T10:26:37;22.37;;;15.57;;
13571;SDS011;6857;53.484;10.216;2024-02-15T10:29:06;21.73;;;13.97;;
13571;SDS011;6857;53.484;10.216;2024-02-15T10:31:35;31.13;;;19.93;;
13571;SDS011;6857;53.484;10.216;2024-02-15T10:34:03;31.70;;;18.87;;
13571;SDS011;6857;53.484;10.216;2024-02-15T10:36:30;28.73;;;17.10;;
13571;SDS011;6857;53.484;10.216;2024-02-15T10:39:14;26.63;;;15.87;;
13571;SDS011;6857;53.484;10.216;2024-02-15T10:41:53;23.10;;;14.60;;
13571;SDS011;6857;53.484;10.216;2024-02-15T10:44:20;23.97;;;15.77;;
13571;SDS011;6857;53.484;10.216;2024-02-15T10:46:48;25.83;;;15.83;;
13571;SDS011;6857;53.484;10.216;2024-02-15T10:49:20;25.43;;;16.20;;
13571;SDS011;6857;53.484;10.216;2024-02-15T10:51:56;25.87;;;15.70;;
13571;SDS011;6857;53.484;10.216;2024-02-15T10:54:37;30.30;;;18.63;;
13571;SDS011;6857;53.484;10.216;2024-02-15T10:57:09;27.33;;;18.67;;
13571;SDS011;6857;53.484;10.216;2024-02-15T10:59:38;33.00;;;19.90;;
13571;SDS011;6857;53.484;10.216;2024-02-15T11:02:42;30.23;;;18.73;;
13571;SDS011;6857;53.484;10.216;2024-02-15T11:05:03;29.03;;;18.67;;
13571;SDS011;6857;53.484;10.216;2024-02-15T11:07:33;32.30;;;20.20;;
13571;SDS011;6857;53.484;10.216;2024-02-15T11:09:59;41.63;;;27.03;;
13571;SDS011;6857;53.484;10.216;2024-02-15T11:12:25;31.33;;;19.10;;
13571;SDS011;6857;53.484;10.216;2024-02-15T11:14:51;33.13;;;20.30;;
13571;SDS011;6857;53.484;10.216;2024-02-15T11:20:07;31.53;;;20.73;;
13571;SDS011;6857;53.484;10.216;2024-02-15T11:22:35;38.83;;;24.90;;
13571;SDS011;6857;53.484;10.216;2024-02-15T11:25:02;32.87;;;20.70;;
13571;SDS011;6857;53.484;10.216;2024-02-15T11:27:36;30.77;;;19.37;;
13571;SDS011;6857;53.484;10.216;2024-02-15T11:30:03;31.80;;;20.97;;
13571;SDS011;6857;53.484;10.216;2024-02-15T11:32:43;39.63;;;25.53;;
13571;SDS011;6857;53.484;10.216;2024-02-15T11:35:13;40.70;;;22.77;;
13571;SDS011;6857;53.484;10.216;2024-02-15T11:42:57;35.87;;;21.60;;
13571;SDS011;6857;53.484;10.216;2024-02-15T11:45:26;39.37;;;22.53;;
13571;SDS011;6857;53.484;10.216;2024-02-15T11:47:58;36.67;;;21.70;;
13571;SDS011;6857;53.484;10.216;2024-02-15T11:50:24;35.83;;;23.37;;
13571;SDS011;6857;53.484;10.216;2024-02-15T11:52:50;43.43;;;25.37;;
13571;SDS011;6857;53.484;10.216;2024-02-15T11:55:20;43.60;;;24.77;;
13571;SDS011;6857;53.484;10.216;2024-02-15T11:57:54;35.67;;;22.47;;
13571;SDS011;6857;53.484;10.216;2024-02-15T12:00:25;39.90;;;25.50;;
13571;SDS011;6857;53.484;10.216;2024-02-15T12:03:10;40.93;;;23.70;;
13571;SDS011;6857;53.484;10.216;2024-02-15T12:05:57;46.27;;;24.07;;
13571;SDS011;6857;53.484;10.216;2024-02-15T12:08:47;42.43;;;25.87;;
13571;SDS011;6857;53.484;10.216;2024-02-15T12:11:33;45.80;;;26.67;;
13571;SDS011;6857;53.484;10.216;2024-02-15T12:14:18;43.03;;;24.77;;
13571;SDS011;6857;53.484;10.216;2024-02-15T12:17:03;42.70;;;25.43;;
13571;SDS011;6857;53.484;10.216;2024-02-15T12:19:49;41.23;;;24.80;;
13571;SDS011;6857;53.484;10.216;2024-02-15T12:22:32;45.03;;;25.17;;
13571;SDS011;6857;53.484;10.216;2024-02-15T12:25:05;42.93;;;26.37;;
13571;SDS011;6857;53.484;10.216;2024-02-15T12:27:37;42.57;;;26.07;;
13571;SDS011;6857;53.484;10.216;2024-02-15T12:30:04;41.70;;;25.63;;
13571;SDS011;6857;53.484;10.216;2024-02-15T12:32:31;42.97;;;24.93;;
13571;SDS011;6857;53.484;10.216;2024-02-15T12:35:40;40.93;;;25.20;;
13571;SDS011;6857;53.484;10.216;2024-02-15T12:38:00;41.00;;;23.03;;
13571;SDS011;6857;53.484;10.216;2024-02-15T12:40:36;39.77;;;24.60;;
13571;SDS011;6857;53.484;10.216;2024-02-15T12:43:06;40.50;;;23.40;;
13571;SDS011;6857;53.484;10.216;2024-02-15T12:45:37;40.90;;;26.50;;
13571;SDS011;6857;53.484;10.216;2024-02-15T12:48:05;33.37;;;21.07;;
13571;SDS011;6857;53.484;10.216;2024-02-15T12:50:31;39.13;;;22.67;;
13571;SDS011;6857;53.484;10.216;2024-02-15T12:52:58;36.43;;;23.00;;
13571;SDS011;6857;53.484;10.216;2024-02-15T12:55:31;35.73;;;21.70;;
13571;SDS011;6857;53.484;10.216;2024-02-15T12:58:02;47.13;;;28.70;;
13571;SDS011;6857;53.484;10.216;2024-02-15T13:00:30;34.87;;;21.60;;
13571;SDS011;6857;53.484;10.216;2024-02-15T13:02:58;35.73;;;21.30;;
13571;SDS011;6857;53.484;10.216;2024-02-15T13:05:27;32.10;;;18.87;;
13571;SDS011;6857;53.484;10.216;2024-02-15T13:07:53;31.90;;;18.33;;
13571;SDS011;6857;53.484;10.216;2024-02-15T13:10:29;31.67;;;19.07;;
13571;SDS011;6857;53.484;10.216;2024-02-15T13:12:56;34.63;;;18.90;;
13571;SDS011;6857;53.484;10.216;2024-02-15T13:15:22;34.37;;;18.13;;
13571;SDS011;6857;53.484;10.216;2024-02-15T13:17:52;29.00;;;18.57;;
13571;SDS011;6857;53.484;10.216;2024-02-15T13:20:19;27.90;;;16.80;;
13571;SDS011;6857;53.484;10.216;2024-02-15T13:22:55;26.20;;;16.57;;
13571;SDS011;6857;53.484;10.216;2024-02-15T13:25:25;24.33;;;15.60;;
13571;SDS011;6857;53.484;10.216;2024-02-15T13:27:50;24.40;;;16.03;;
13571;SDS011;6857;53.484;10.216;2024-02-15T13:30:16;22.37;;;15.70;;
13571;SDS011;6857;53.484;10.216;2024-02-15T13:32:48;20.60;;;14.40;;
13571;SDS011;6857;53.484;10.216;2024-02-15T13:35:17;17.53;;;12.93;;
13571;SDS011;6857;53.484;10.216;2024-02-15T13:37:48;16.07;;;12.10;;
13571;SDS011;6857;53.484;10.216;2024-02-15T13:40:14;16.83;;;10.90;;
13571;SDS011;6857;53.484;10.216;2024-02-15T13:42:46;15.87;;;9.63;;
13571;SDS011;6857;53.484;10.216;2024-02-15T13:45:24;18.27;;;10.27;;
13571;SDS011;6857;53.484;10.216;2024-02-15T13:48:02;13.83;;;9.30;;
13571;SDS011;6857;53.484;10.216;2024-02-15T13:50:32;13.20;;;9.60;;
13571;SDS011;6857;53.484;10.216;2024-02-15T13:52:58;14.13;;;10.20;;
13571;SDS011;6857;53.484;10.216;2024-02-15T13:55:24;13.53;;;8.53;;
13571;SDS011;6857;53.484;10.216;2024-02-15T13:57:53;12.33;;;9.00;;
13571;SDS011;6857;53.484;10.216;2024-02-15T14:00:23;14.43;;;9.47;;
13571;SDS011;6857;53.484;10.216;2024-02-15T14:02:55;17.33;;;12.37;;
13571;SDS011;6857;53.484;10.216;2024-02-15T14:05:22;14.33;;;10.97;;
13571;SDS011;6857;53.484;10.216;2024-02-15T14:07:51;12.23;;;9.03;;
13571;SDS011;6857;53.484;10.216;2024-02-15T14:10:21;22.50;;;14.63;;
13571;SDS011;6857;53.484;10.216;2024-02-15T14:12:47;43.30;;;26.90;;
13571;SDS011;6857;53.484;10.216;2024-02-15T14:15:16;13.77;;;9.20;;
13571;SDS011;6857;53.484;10.216;2024-02-15T14:17:42;12.13;;;8.93;;
13571;SDS011;6857;53.484;10.216;2024-02-15T14:20:09;14.43;;;9.23;;
13571;SDS011;6857;53.484;10.216;2024-02-15T14:22:39;12.43;;;8.83;;
13571;SDS011;6857;53.484;10.216;2024-02-15T14:25:05;14.73;;;9.87;;
13571;SDS011;6857;53.484;10.216;2024-02-15T14:27:32;15.63;;;10.07;;
13571;SDS011;6857;53.484;10.216;2024-02-15T14:29:58;14.07;;;9.40;;
13571;SDS011;6857;53.484;10.216;2024-02-15T14:32:42;12.37;;;9.07;;
13571;SDS011;6857;53.484;10.216;2024-02-15T14:35:30;11.57;;;8.87;;
13571;SDS011;6857;53.484;10.216;2024-02-15T14:37:57;14.23;;;9.93;;
13571;SDS011;6857;53.484;10.216;2024-02-15T14:40:23;13.17;;;9.77;;